sensor_id;sensor_type;location;lat;lon;timestamp;pressure;altitude;pressure_sealevel;temperature;humidity
46782;BME280;32541;46.298;11.506;2022-07-23T00:01:23;89911.44;;;21.20;57.92
46782;BME280;32541;46.298;11.506;2022-07-23T00:03:49;89911.78;;;21.11;57.99
46782;BME280;32541;46.298;11.506;2022-07-23T00:06:17;89910.69;;;21.02;58.32
46782;BME280;32541;46.298;11.506;2022-07-23T00:08:42;89912.44;;;20.93;57.91
46782;BME280;32541;46.298;11.506;2022-07-23T00:11:08;89911.13;;;20.79;58.06
46782;BME280;32541;46.298;11.506;2022-07-23T00:13:33;89919.22;;;20.88;58.72
46782;BME280;32541;46.298;11.506;2022-07-23T00:15:59;89910.69;;;21.02;58.21
46782;BME280;32541;46.298;11.506;2022-07-23T00:18:24;89919.41;;;20.92;58.69
46782;BME280;32541;46.298;11.506;2022-07-23T00:20:50;89919.31;;;20.90;58.53
46782;BME280;32541;46.298;11.506;2022-07-23T00:23:16;89923.16;;;20.81;58.49
46782;BME280;32541;46.298;11.506;2022-07-23T00:25:41;89915.81;;;20.90;58.27
46782;BME280;32541;46.298;11.506;2022-07-23T00:28:19;89915.09;;;20.89;58.23
46782;BME280;32541;46.298;11.506;2022-07-23T00:30:47;89918.19;;;20.97;58.19
46782;BME280;32541;46.298;11.506;2022-07-23T00:33:12;89924.50;;;20.98;58.09
46782;BME280;32541;46.298;11.506;2022-07-23T00:35:41;89926.66;;;20.99;57.93
46782;BME280;32541;46.298;11.506;2022-07-23T00:38:21;89922.00;;;20.88;58.48
46782;BME280;32541;46.298;11.506;2022-07-23T00:40:49;89913.78;;;20.75;58.35
46782;BME280;32541;46.298;11.506;2022-07-23T00:43:25;89914.34;;;20.89;58.19
46782;BME280;32541;46.298;11.506;2022-07-23T00:45:51;89910.09;;;20.70;58.40
46782;BME280;32541;46.298;11.506;2022-07-23T00:48:16;89910.97;;;20.57;58.86
46782;BME280;32541;46.298;11.506;2022-07-23T00:50:42;89908.84;;;20.40;59.26
46782;BME280;32541;46.298;11.506;2022-07-23T00:53:08;89904.22;;;20.46;59.13
46782;BME280;32541;46.298;11.506;2022-07-23T00:55:34;89901.88;;;20.41;59.56
46782;BME280;32541;46.298;11.506;2022-07-23T00:58:00;89904.59;;;20.39;59.85
46782;BME280;32541;46.298;11.506;2022-07-23T01:00:26;89903.16;;;20.22;60.11
46782;BME280;32541;46.298;11.506;2022-07-23T01:02:51;89897.06;;;20.26;59.69
46782;BME280;32541;46.298;11.506;2022-07-23T01:05:17;89899.94;;;20.28;59.67
46782;BME280;32541;46.298;11.506;2022-07-23T01:07:50;89900.81;;;20.17;60.35
46782;BME280;32541;46.298;11.506;2022-07-23T01:10:16;89893.91;;;20.18;60.30
46782;BME280;32541;46.298;11.506;2022-07-23T01:13:07;89901.47;;;20.15;60.14
46782;BME280;32541;46.298;11.506;2022-07-23T01:15:35;89891.50;;;20.10;59.98
46782;BME280;32541;46.298;11.506;2022-07-23T01:18:01;89888.50;;;20.06;60.17
46782;BME280;32541;46.298;11.506;2022-07-23T01:20:27;89887.78;;;20.06;60.23
46782;BME280;32541;46.298;11.506;2022-07-23T01:22:53;89883.41;;;20.01;60.64
46782;BME280;32541;46.298;11.506;2022-07-23T01:25:19;89878.94;;;20.11;60.37
46782;BME280;32541;46.298;11.506;2022-07-23T01:27:45;89880.88;;;20.07;60.31
46782;BME280;32541;46.298;11.506;2022-07-23T01:30:11;89879.16;;;20.00;60.58
46782;BME280;32541;46.298;11.506;2022-07-23T01:32:37;89874.84;;;19.96;60.79
46782;BME280;32541;46.298;11.506;2022-07-23T01:35:04;89873.13;;;19.89;60.77
46782;BME280;32541;46.298;11.506;2022-07-23T01:37:30;89875.91;;;19.89;60.65
46782;BME280;32541;46.298;11.506;2022-07-23T01:39:55;89885.00;;;19.90;60.73
46782;BME280;32541;46.298;11.506;2022-07-23T01:42:20;89890.63;;;19.74;61.10
46782;BME280;32541;46.298;11.506;2022-07-23T01:44:46;89889.63;;;19.68;61.72
46782;BME280;32541;46.298;11.506;2022-07-23T01:47:11;89886.66;;;19.79;61.22
46782;BME280;32541;46.298;11.506;2022-07-23T01:49:37;89891.88;;;19.71;61.02
46782;BME280;32541;46.298;11.506;2022-07-23T01:52:03;89897.19;;;19.65;61.51
46782;BME280;32541;46.298;11.506;2022-07-23T01:54:33;89898.78;;;19.55;61.69
46782;BME280;32541;46.298;11.506;2022-07-23T01:57:00;89898.78;;;19.55;61.95
46782;BME280;32541;46.298;11.506;2022-07-23T01:59:27;89900.69;;;19.50;62.22
46782;BME280;32541;46.298;11.506;2022-07-23T02:01:53;89914.00;;;19.52;61.88
46782;BME280;32541;46.298;11.506;2022-07-23T02:04:20;89916.16;;;19.53;62.15
46782;BME280;32541;46.298;11.506;2022-07-23T02:06:45;89929.84;;;19.47;62.41
46782;BME280;32541;46.298;11.506;2022-07-23T02:09:11;89935.22;;;19.43;62.13
46782;BME280;32541;46.298;11.506;2022-07-23T02:11:36;89947.72;;;19.42;62.29
46782;BME280;32541;46.298;11.506;2022-07-23T02:14:02;89934.41;;;19.40;62.80
46782;BME280;32541;46.298;11.506;2022-07-23T02:16:27;89924.00;;;19.27;63.26
46782;BME280;32541;46.298;11.506;2022-07-23T02:18:53;89914.47;;;19.17;63.60
46782;BME280;32541;46.298;11.506;2022-07-23T02:21:18;89915.75;;;19.29;63.53
46782;BME280;32541;46.298;11.506;2022-07-23T02:23:44;89911.59;;;19.15;63.39
46782;BME280;32541;46.298;11.506;2022-07-23T02:26:09;89907.00;;;19.21;63.09
46782;BME280;32541;46.298;11.506;2022-07-23T02:28:34;89918.25;;;19.23;62.79
46782;BME280;32541;46.298;11.506;2022-07-23T02:31:00;89914.31;;;19.28;62.60
46782;BME280;32541;46.298;11.506;2022-07-23T02:33:25;89909.25;;;19.25;63.10
46782;BME280;32541;46.298;11.506;2022-07-23T02:35:51;89922.19;;;19.18;63.08
46782;BME280;32541;46.298;11.506;2022-07-23T02:38:16;89913.22;;;19.20;63.02
46782;BME280;32541;46.298;11.506;2022-07-23T02:40:42;89918.41;;;19.12;63.04
46782;BME280;32541;46.298;11.506;2022-07-23T02:43:07;89914.19;;;19.11;63.32
46782;BME280;32541;46.298;11.506;2022-07-23T02:45:32;89911.81;;;19.05;63.77
46782;BME280;32541;46.298;11.506;2022-07-23T02:47:58;89909.13;;;19.07;63.81
46782;BME280;32541;46.298;11.506;2022-07-23T02:50:23;89913.41;;;19.24;63.44
46782;BME280;32541;46.298;11.506;2022-07-23T02:52:48;89909.66;;;19.33;62.82
46782;BME280;32541;46.298;11.506;2022-07-23T02:55:14;89906.81;;;19.17;63.13
46782;BME280;32541;46.298;11.506;2022-07-23T02:57:39;89911.31;;;19.09;63.74
46782;BME280;32541;46.298;11.506;2022-07-23T03:00:06;89910.50;;;19.06;64.07
46782;BME280;32541;46.298;11.506;2022-07-23T03:02:32;89908.22;;;19.03;64.19
46782;BME280;32541;46.298;11.506;2022-07-23T03:04:57;89901.63;;;18.96;64.18
46782;BME280;32541;46.298;11.506;2022-07-23T03:07:23;89903.78;;;18.98;64.36
46782;BME280;32541;46.298;11.506;2022-07-23T03:09:48;89903.78;;;18.98;64.57
46782;BME280;32541;46.298;11.506;2022-07-23T03:12:14;89911.44;;;18.97;64.36
46782;BME280;32541;46.298;11.506;2022-07-23T03:14:40;89912.41;;;18.88;65.35
46782;BME280;32541;46.298;11.506;2022-07-23T03:17:05;89910.59;;;18.79;65.34
46782;BME280;32541;46.298;11.506;2022-07-23T03:19:30;89918.50;;;18.84;65.27
46782;BME280;32541;46.298;11.506;2022-07-23T03:21:56;89912.22;;;18.84;65.18
46782;BME280;32541;46.298;11.506;2022-07-23T03:24:21;89910.88;;;18.85;64.81
46782;BME280;32541;46.298;11.506;2022-07-23T03:26:49;89912.41;;;18.88;65.07
46782;BME280;32541;46.298;11.506;2022-07-23T03:29:14;89922.09;;;18.87;65.73
46782;BME280;32541;46.298;11.506;2022-07-23T03:31:40;89925.91;;;18.94;65.49
46782;BME280;32541;46.298;11.506;2022-07-23T03:34:05;89920.28;;;18.78;65.76
46782;BME280;32541;46.298;11.506;2022-07-23T03:36:30;89929.44;;;18.80;65.94
46782;BME280;32541;46.298;11.506;2022-07-23T03:38:56;89925.13;;;18.77;65.84
46782;BME280;32541;46.298;11.506;2022-07-23T03:41:22;89933.69;;;18.81;65.50
46782;BME280;32541;46.298;11.506;2022-07-23T03:43:47;89927.91;;;18.77;65.93
46782;BME280;32541;46.298;11.506;2022-07-23T03:46:13;89936.69;;;18.85;65.65
46782;BME280;32541;46.298;11.506;2022-07-23T03:48:38;89941.59;;;18.87;65.28
46782;BME280;32541;46.298;11.506;2022-07-23T03:51:04;89951.72;;;18.94;65.98
46782;BME280;32541;46.298;11.506;2022-07-23T03:53:29;89968.31;;;18.92;65.71
46782;BME280;32541;46.298;11.506;2022-07-23T03:55:55;89979.47;;;18.92;65.19
46782;BME280;32541;46.298;11.506;2022-07-23T03:58:20;89973.47;;;18.98;65.52
46782;BME280;32541;46.298;11.506;2022-07-23T04:00:46;89986.34;;;19.05;65.46
46782;BME280;32541;46.298;11.506;2022-07-23T04:03:11;89984.91;;;19.04;65.52
46782;BME280;32541;46.298;11.506;2022-07-23T04:05:36;90002.56;;;19.08;65.15
46782;BME280;32541;46.298;11.506;2022-07-23T04:08:02;90007.41;;;19.08;64.81
46782;BME280;32541;46.298;11.506;2022-07-23T04:10:27;90017.41;;;19.13;64.67
46782;BME280;32541;46.298;11.506;2022-07-23T04:12:52;90021.66;;;19.14;64.88
46782;BME280;32541;46.298;11.506;2022-07-23T04:15:18;90020.41;;;19.17;65.58
46782;BME280;32541;46.298;11.506;2022-07-23T04:17:43;90019.16;;;19.20;65.61
46782;BME280;32541;46.298;11.506;2022-07-23T04:20:11;90015.41;;;19.29;65.46
46782;BME280;32541;46.298;11.506;2022-07-23T04:22:36;90027.91;;;19.28;65.10
46782;BME280;32541;46.298;11.506;2022-07-23T04:25:02;90026.34;;;19.25;66.41
46782;BME280;32541;46.298;11.506;2022-07-23T04:27:27;90021.31;;;19.21;67.44
46782;BME280;32541;46.298;11.506;2022-07-23T04:29:52;90028.84;;;19.19;68.71
46782;BME280;32541;46.298;11.506;2022-07-23T04:32:18;90044.53;;;19.26;70.65
46782;BME280;32541;46.298;11.506;2022-07-23T04:34:43;90065.44;;;19.11;71.46
46782;BME280;32541;46.298;11.506;2022-07-23T04:37:08;90079.38;;;19.11;73.46
46782;BME280;32541;46.298;11.506;2022-07-23T04:39:34;90076.91;;;18.90;75.60
46782;BME280;32541;46.298;11.506;2022-07-23T04:41:59;90074.25;;;18.78;73.87
46782;BME280;32541;46.298;11.506;2022-07-23T04:44:25;90073.41;;;18.76;74.04
46782;BME280;32541;46.298;11.506;2022-07-23T04:46:50;90092.09;;;18.73;73.75
46782;BME280;32541;46.298;11.506;2022-07-23T04:49:15;90096.94;;;19.00;68.96
46782;BME280;32541;46.298;11.506;2022-07-23T04:51:41;90109.09;;;19.20;67.32
46782;BME280;32541;46.298;11.506;2022-07-23T04:54:06;90096.06;;;19.38;65.52
46782;BME280;32541;46.298;11.506;2022-07-23T04:56:31;90083.84;;;19.59;64.87
46782;BME280;32541;46.298;11.506;2022-07-23T04:58:57;90079.34;;;19.68;65.38
46782;BME280;32541;46.298;11.506;2022-07-23T05:01:22;90079.44;;;19.70;64.93
46782;BME280;32541;46.298;11.506;2022-07-23T05:03:48;90090.66;;;19.85;64.33
46782;BME280;32541;46.298;11.506;2022-07-23T05:06:14;90089.94;;;19.85;65.71
46782;BME280;32541;46.298;11.506;2022-07-23T05:08:39;90101.44;;;19.77;67.07
46782;BME280;32541;46.298;11.506;2022-07-23T05:11:05;90100.13;;;19.65;66.85
46782;BME280;32541;46.298;11.506;2022-07-23T05:13:30;90110.28;;;19.58;67.94
46782;BME280;32541;46.298;11.506;2022-07-23T05:15:55;90104.44;;;19.25;66.67
46782;BME280;32541;46.298;11.506;2022-07-23T05:18:21;90095.94;;;19.36;64.98
46782;BME280;32541;46.298;11.506;2022-07-23T05:20:46;90099.34;;;19.49;65.18
46782;BME280;32541;46.298;11.506;2022-07-23T05:23:12;90093.63;;;19.60;66.76
46782;BME280;32541;46.298;11.506;2022-07-23T05:25:37;90093.44;;;19.56;67.19
46782;BME280;32541;46.298;11.506;2022-07-23T05:28:03;90078.38;;;19.48;67.68
46782;BME280;32541;46.298;11.506;2022-07-23T05:30:28;90075.00;;;19.22;68.04
46782;BME280;32541;46.298;11.506;2022-07-23T05:32:53;90061.53;;;18.75;75.19
46782;BME280;32541;46.298;11.506;2022-07-23T05:35:19;90057.75;;;18.55;76.42
46782;BME280;32541;46.298;11.506;2022-07-23T05:37:44;90044.28;;;18.24;78.77
46782;BME280;32541;46.298;11.506;2022-07-23T05:40:10;90046.34;;;18.24;78.93
46782;BME280;32541;46.298;11.506;2022-07-23T05:42:38;90040.94;;;18.01;78.60
46782;BME280;32541;46.298;11.506;2022-07-23T05:45:04;90054.41;;;18.31;73.57
46782;BME280;32541;46.298;11.506;2022-07-23T05:47:44;90052.56;;;18.63;71.42
46782;BME280;32541;46.298;11.506;2022-07-23T05:50:11;90041.41;;;18.77;70.52
46782;BME280;32541;46.298;11.506;2022-07-23T05:52:37;90037.16;;;18.90;70.43
46782;BME280;32541;46.298;11.506;2022-07-23T05:55:04;90025.94;;;18.88;71.60
46782;BME280;32541;46.298;11.506;2022-07-23T05:57:29;90022.50;;;18.89;71.77
46782;BME280;32541;46.298;11.506;2022-07-23T05:59:55;90015.25;;;19.11;71.51
46782;BME280;32541;46.298;11.506;2022-07-23T06:02:20;90004.34;;;19.31;70.39
46782;BME280;32541;46.298;11.506;2022-07-23T06:04:45;90002.63;;;19.53;69.24
46782;BME280;32541;46.298;11.506;2022-07-23T06:07:11;90002.19;;;19.59;71.18
46782;BME280;32541;46.298;11.506;2022-07-23T06:09:36;90007.03;;;19.29;70.78
46782;BME280;32541;46.298;11.506;2022-07-23T06:12:02;90004.03;;;19.25;70.71
46782;BME280;32541;46.298;11.506;2022-07-23T06:14:27;89994.34;;;18.83;75.02
46782;BME280;32541;46.298;11.506;2022-07-23T06:16:53;90007.06;;;18.45;77.46
46782;BME280;32541;46.298;11.506;2022-07-23T06:19:18;89994.38;;;18.42;76.55
46782;BME280;32541;46.298;11.506;2022-07-23T06:21:43;90000.13;;;18.32;76.57
46782;BME280;32541;46.298;11.506;2022-07-23T06:24:09;89989.31;;;18.25;77.20
46782;BME280;32541;46.298;11.506;2022-07-23T06:26:34;89983.53;;;18.48;76.75
46782;BME280;32541;46.298;11.506;2022-07-23T06:28:59;89985.16;;;18.80;75.09
46782;BME280;32541;46.298;11.506;2022-07-23T06:31:25;89991.06;;;19.16;72.98
46782;BME280;32541;46.298;11.506;2022-07-23T06:33:50;89987.59;;;19.31;70.22
46782;BME280;32541;46.298;11.506;2022-07-23T06:36:16;89987.78;;;19.49;69.55
46782;BME280;32541;46.298;11.506;2022-07-23T06:38:41;89985.31;;;19.70;69.88
46782;BME280;32541;46.298;11.506;2022-07-23T06:41:07;89989.94;;;19.95;69.32
46782;BME280;32541;46.298;11.506;2022-07-23T06:43:32;89984.25;;;20.09;69.31
46782;BME280;32541;46.298;11.506;2022-07-23T06:45:57;89984.78;;;20.21;68.58
46782;BME280;32541;46.298;11.506;2022-07-23T06:48:23;89990.84;;;20.31;66.51
46782;BME280;32541;46.298;11.506;2022-07-23T06:50:48;89986.88;;;20.52;66.57
46782;BME280;32541;46.298;11.506;2022-07-23T06:53:14;89979.06;;;20.66;67.02
46782;BME280;32541;46.298;11.506;2022-07-23T06:55:39;89992.19;;;20.79;67.03
46782;BME280;32541;46.298;11.506;2022-07-23T06:58:05;89990.09;;;20.46;66.60
46782;BME280;32541;46.298;11.506;2022-07-23T07:00:31;89984.81;;;20.70;64.08
46782;BME280;32541;46.298;11.506;2022-07-23T07:02:58;89981.56;;;20.42;65.02
46782;BME280;32541;46.298;11.506;2022-07-23T07:05:23;89978.22;;;20.30;67.68
46782;BME280;32541;46.298;11.506;2022-07-23T07:07:50;89970.63;;;20.48;66.16
46782;BME280;32541;46.298;11.506;2022-07-23T07:10:16;89968.66;;;20.84;64.98
46782;BME280;32541;46.298;11.506;2022-07-23T07:12:42;89974.63;;;20.76;63.65
46782;BME280;32541;46.298;11.506;2022-07-23T07:15:08;89980.09;;;20.41;65.13
46782;BME280;32541;46.298;11.506;2022-07-23T07:17:34;89985.16;;;20.29;65.77
46782;BME280;32541;46.298;11.506;2022-07-23T07:19:59;89987.56;;;20.21;66.16
46782;BME280;32541;46.298;11.506;2022-07-23T07:22:25;89988.75;;;20.31;63.94
46782;BME280;32541;46.298;11.506;2022-07-23T07:24:50;89994.94;;;19.83;67.45
46782;BME280;32541;46.298;11.506;2022-07-23T07:27:15;89989.09;;;19.92;67.63
46782;BME280;32541;46.298;11.506;2022-07-23T07:29:41;89988.91;;;20.20;67.05
46782;BME280;32541;46.298;11.506;2022-07-23T07:32:06;89994.81;;;20.26;66.30
46782;BME280;32541;46.298;11.506;2022-07-23T07:34:32;89993.78;;;20.50;65.38
46782;BME280;32541;46.298;11.506;2022-07-23T07:36:57;90005.47;;;20.78;63.30
46782;BME280;32541;46.298;11.506;2022-07-23T07:39:23;89999.91;;;20.47;64.12
46782;BME280;32541;46.298;11.506;2022-07-23T07:41:48;89989.31;;;20.77;64.45
46782;BME280;32541;46.298;11.506;2022-07-23T07:44:13;89994.81;;;20.90;61.37
46782;BME280;32541;46.298;11.506;2022-07-23T07:46:39;89980.34;;;20.96;61.38
46782;BME280;32541;46.298;11.506;2022-07-23T07:49:06;89977.63;;;21.14;60.05
46782;BME280;32541;46.298;11.506;2022-07-23T07:51:31;89977.06;;;21.35;59.04
46782;BME280;32541;46.298;11.506;2022-07-23T07:53:57;89983.59;;;21.41;60.78
46782;BME280;32541;46.298;11.506;2022-07-23T07:56:23;89982.56;;;21.33;60.57
46782;BME280;32541;46.298;11.506;2022-07-23T07:58:48;89982.91;;;21.76;60.10
46782;BME280;32541;46.298;11.506;2022-07-23T08:01:14;89983.09;;;22.37;58.61
46782;BME280;32541;46.298;11.506;2022-07-23T08:03:39;89975.28;;;22.73;57.24
46782;BME280;32541;46.298;11.506;2022-07-23T08:06:05;89977.47;;;23.16;57.00
46782;BME280;32541;46.298;11.506;2022-07-23T08:08:30;89980.66;;;23.48;54.55
46782;BME280;32541;46.298;11.506;2022-07-23T08:10:56;89983.06;;;23.57;53.30
46782;BME280;32541;46.298;11.506;2022-07-23T08:13:21;89984.47;;;23.58;52.38
46782;BME280;32541;46.298;11.506;2022-07-23T08:15:46;89989.56;;;23.64;51.30
46782;BME280;32541;46.298;11.506;2022-07-23T08:18:12;89991.59;;;23.83;52.06
46782;BME280;32541;46.298;11.506;2022-07-23T08:20:37;89996.28;;;23.98;50.07
46782;BME280;32541;46.298;11.506;2022-07-23T08:23:07;89991.09;;;24.12;51.32
46782;BME280;32541;46.298;11.506;2022-07-23T08:25:35;89992.47;;;24.11;49.43
46782;BME280;32541;46.298;11.506;2022-07-23T08:28:03;89999.91;;;24.24;48.84
46782;BME280;32541;46.298;11.506;2022-07-23T08:30:29;89997.09;;;24.24;48.28
46782;BME280;32541;46.298;11.506;2022-07-23T08:35:38;89998.00;;;24.31;48.50
46782;BME280;32541;46.298;11.506;2022-07-23T08:38:09;89997.47;;;24.37;48.45
46782;BME280;32541;46.298;11.506;2022-07-23T08:40:37;90007.78;;;24.30;48.77
46782;BME280;32541;46.298;11.506;2022-07-23T08:43:07;90008.38;;;24.26;49.12
46782;BME280;32541;46.298;11.506;2022-07-23T08:45:43;90021.81;;;24.52;48.81
46782;BME280;32541;46.298;11.506;2022-07-23T08:48:14;90020.97;;;24.02;48.55
46782;BME280;32541;46.298;11.506;2022-07-23T08:50:48;90019.75;;;23.42;50.74
46782;BME280;32541;46.298;11.506;2022-07-23T08:53:14;90027.06;;;23.51;50.59
46782;BME280;32541;46.298;11.506;2022-07-23T08:55:47;90028.38;;;23.69;51.33
46782;BME280;32541;46.298;11.506;2022-07-23T08:58:13;90032.47;;;23.88;51.56
46782;BME280;32541;46.298;11.506;2022-07-23T09:00:39;90032.09;;;24.19;50.51
46782;BME280;32541;46.298;11.506;2022-07-23T09:03:05;90032.56;;;23.90;51.53
46782;BME280;32541;46.298;11.506;2022-07-23T09:05:30;90037.81;;;23.37;53.11
46782;BME280;32541;46.298;11.506;2022-07-23T09:08:10;90032.28;;;22.99;55.22
46782;BME280;32541;46.298;11.506;2022-07-23T09:10:57;90043.56;;;22.62;55.77
46782;BME280;32541;46.298;11.506;2022-07-23T09:13:33;90045.53;;;22.40;56.65
46782;BME280;32541;46.298;11.506;2022-07-23T09:19:06;90030.69;;;22.18;56.85
46782;BME280;32541;46.298;11.506;2022-07-23T09:24:14;90043.84;;;22.50;58.23
46782;BME280;32541;46.298;11.506;2022-07-23T09:26:46;90035.97;;;22.64;56.22
46782;BME280;32541;46.298;11.506;2022-07-23T09:31:49;90029.75;;;23.07;55.41
46782;BME280;32541;46.298;11.506;2022-07-23T09:34:28;90027.84;;;23.53;55.10
46782;BME280;32541;46.298;11.506;2022-07-23T09:36:56;90021.84;;;24.08;54.01
46782;BME280;32541;46.298;11.506;2022-07-23T09:39:32;90019.25;;;24.62;53.62
46782;BME280;32541;46.298;11.506;2022-07-23T09:42:22;90015.03;;;25.10;50.97
46782;BME280;32541;46.298;11.506;2022-07-23T09:44:49;89991.03;;;25.61;50.18
46782;BME280;32541;46.298;11.506;2022-07-23T09:47:16;90010.50;;;24.50;49.42
46782;BME280;32541;46.298;11.506;2022-07-23T09:52:42;89996.16;;;24.65;49.27
46782;BME280;32541;46.298;11.506;2022-07-23T09:55:08;89992.69;;;25.16;49.83
46782;BME280;32541;46.298;11.506;2022-07-23T09:57:34;89990.41;;;25.64;49.26
46782;BME280;32541;46.298;11.506;2022-07-23T10:00:07;89984.47;;;26.10;48.03
46782;BME280;32541;46.298;11.506;2022-07-23T10:02:35;89979.00;;;25.88;47.80
46782;BME280;32541;46.298;11.506;2022-07-23T10:05:04;89974.66;;;25.27;47.97
46782;BME280;32541;46.298;11.506;2022-07-23T10:07:35;89970.88;;;25.72;48.47
46782;BME280;32541;46.298;11.506;2022-07-23T10:10:03;89966.66;;;26.01;47.49
46782;BME280;32541;46.298;11.506;2022-07-23T10:12:28;89952.41;;;26.25;47.69
46782;BME280;32541;46.298;11.506;2022-07-23T10:15:09;89946.16;;;26.64;46.59
46782;BME280;32541;46.298;11.506;2022-07-23T10:17:35;89938.94;;;26.89;46.70
46782;BME280;32541;46.298;11.506;2022-07-23T10:20:01;89938.19;;;26.86;45.31
46782;BME280;32541;46.298;11.506;2022-07-23T10:22:30;89943.09;;;26.86;44.71
46782;BME280;32541;46.298;11.506;2022-07-23T10:25:32;89930.94;;;25.50;45.35
46782;BME280;32541;46.298;11.506;2022-07-23T10:33:41;89930.59;;;25.38;47.13
46782;BME280;32541;46.298;11.506;2022-07-23T10:36:38;89925.91;;;26.08;45.22
46782;BME280;32541;46.298;11.506;2022-07-23T10:39:10;89915.06;;;26.60;44.53
46782;BME280;32541;46.298;11.506;2022-07-23T10:41:39;89917.41;;;27.08;44.58
46782;BME280;32541;46.298;11.506;2022-07-23T10:44:14;89908.28;;;27.49;43.25
46782;BME280;32541;46.298;11.506;2022-07-23T10:49:43;89900.28;;;28.27;42.71
46782;BME280;32541;46.298;11.506;2022-07-23T10:52:26;89899.56;;;28.25;42.19
46782;BME280;32541;46.298;11.506;2022-07-23T10:57:48;89885.34;;;27.31;41.07
46782;BME280;32541;46.298;11.506;2022-07-23T11:00:16;89880.44;;;27.33;43.12
46782;BME280;32541;46.298;11.506;2022-07-23T11:02:44;89882.47;;;26.87;42.47
46782;BME280;32541;46.298;11.506;2022-07-23T11:05:16;89880.09;;;27.13;40.97
46782;BME280;32541;46.298;11.506;2022-07-23T11:10:37;89868.63;;;27.89;40.82
46782;BME280;32541;46.298;11.506;2022-07-23T11:18:57;89852.16;;;28.77;40.28
46782;BME280;32541;46.298;11.506;2022-07-23T11:24:04;89848.75;;;27.83;38.72
46782;BME280;32541;46.298;11.506;2022-07-23T11:29:39;89839.44;;;27.74;39.93
46782;BME280;32541;46.298;11.506;2022-07-23T11:32:06;89836.13;;;27.88;39.31
46782;BME280;32541;46.298;11.506;2022-07-23T11:34:42;89830.94;;;27.72;40.42
46782;BME280;32541;46.298;11.506;2022-07-23T11:37:12;89830.78;;;27.62;39.68
46782;BME280;32541;46.298;11.506;2022-07-23T11:39:53;89823.66;;;28.05;39.97
46782;BME280;32541;46.298;11.506;2022-07-23T11:42:19;89815.72;;;28.49;40.03
46782;BME280;32541;46.298;11.506;2022-07-23T11:44:46;89817.59;;;28.93;39.39
46782;BME280;32541;46.298;11.506;2022-07-23T11:47:12;89807.38;;;29.30;38.15
46782;BME280;32541;46.298;11.506;2022-07-23T11:49:43;89809.66;;;29.51;39.88
46782;BME280;32541;46.298;11.506;2022-07-23T11:52:16;89803.25;;;29.49;38.91
46782;BME280;32541;46.298;11.506;2022-07-23T11:54:52;89799.88;;;29.68;38.58
46782;BME280;32541;46.298;11.506;2022-07-23T11:57:19;89798.66;;;30.00;37.56
46782;BME280;32541;46.298;11.506;2022-07-23T11:59:51;89792.31;;;30.05;35.53
46782;BME280;32541;46.298;11.506;2022-07-23T12:02:19;89791.59;;;29.99;38.18
46782;BME280;32541;46.298;11.506;2022-07-23T12:04:48;89789.97;;;29.75;37.51
46782;BME280;32541;46.298;11.506;2022-07-23T12:07:33;89792.13;;;28.91;39.44
46782;BME280;32541;46.298;11.506;2022-07-23T12:12:41;89793.13;;;28.53;38.70
46782;BME280;32541;46.298;11.506;2022-07-23T12:15:07;89792.78;;;28.23;38.81
46782;BME280;32541;46.298;11.506;2022-07-23T12:17:35;89787.13;;;28.23;38.59
46782;BME280;32541;46.298;11.506;2022-07-23T12:20:03;89793.34;;;28.11;39.71
46782;BME280;32541;46.298;11.506;2022-07-23T12:22:41;89778.81;;;28.39;38.78
46782;BME280;32541;46.298;11.506;2022-07-23T12:27:35;89768.81;;;28.98;37.71
46782;BME280;32541;46.298;11.506;2022-07-23T12:30:22;89774.94;;;29.51;38.49
46782;BME280;32541;46.298;11.506;2022-07-23T12:32:49;89777.19;;;29.70;38.11
46782;BME280;32541;46.298;11.506;2022-07-23T12:35:16;89768.94;;;30.05;37.51
46782;BME280;32541;46.298;11.506;2022-07-23T12:37:43;89771.16;;;30.28;35.81
46782;BME280;32541;46.298;11.506;2022-07-23T12:42:54;89756.94;;;30.18;35.85
46782;BME280;32541;46.298;11.506;2022-07-23T12:45:20;89747.75;;;30.28;36.47
46782;BME280;32541;46.298;11.506;2022-07-23T12:50:59;89740.06;;;30.57;35.36
46782;BME280;32541;46.298;11.506;2022-07-23T12:56:03;89733.09;;;31.22;35.79
46782;BME280;32541;46.298;11.506;2022-07-23T12:58:51;89744.47;;;31.61;35.17
46782;BME280;32541;46.298;11.506;2022-07-23T13:04:11;89739.50;;;31.59;35.32
46782;BME280;32541;46.298;11.506;2022-07-23T13:06:42;89738.03;;;31.42;35.62
46782;BME280;32541;46.298;11.506;2022-07-23T13:09:11;89747.94;;;30.89;33.07
46782;BME280;32541;46.298;11.506;2022-07-23T13:11:38;89747.91;;;29.36;35.96
46782;BME280;32541;46.298;11.506;2022-07-23T13:14:03;89745.59;;;29.10;36.42
46782;BME280;32541;46.298;11.506;2022-07-23T13:16:30;89754.63;;;28.92;37.36
46782;BME280;32541;46.298;11.506;2022-07-23T13:18:56;89750.53;;;29.13;36.74
46782;BME280;32541;46.298;11.506;2022-07-23T13:21:28;89749.53;;;28.77;36.89
46782;BME280;32541;46.298;11.506;2022-07-23T13:23:55;89748.22;;;28.88;36.95
46782;BME280;32541;46.298;11.506;2022-07-23T13:26:20;89739.81;;;28.98;37.91
46782;BME280;32541;46.298;11.506;2022-07-23T13:28:46;89744.19;;;29.13;37.69
46782;BME280;32541;46.298;11.506;2022-07-23T13:31:12;89746.47;;;29.31;37.05
46782;BME280;32541;46.298;11.506;2022-07-23T13:33:38;89742.81;;;29.20;36.67
46782;BME280;32541;46.298;11.506;2022-07-23T13:36:03;89749.94;;;29.25;37.73
46782;BME280;32541;46.298;11.506;2022-07-23T13:38:29;89751.31;;;29.22;37.51
46782;BME280;32541;46.298;11.506;2022-07-23T13:40:55;89754.75;;;29.08;37.20
46782;BME280;32541;46.298;11.506;2022-07-23T13:43:23;89746.78;;;28.87;37.28
46782;BME280;32541;46.298;11.506;2022-07-23T13:45:50;89748.84;;;28.80;37.00
46782;BME280;32541;46.298;11.506;2022-07-23T13:48:16;89755.84;;;28.73;37.04